sensor_id;sensor_type;location;lat;lon;timestamp;temperature;humidity
13472;DHT22;6808;49.444;11.034;2023-03-19T00:00:04;9.90;99.90
13472;DHT22;6808;49.444;11.034;2023-03-19T00:02:32;9.80;99.90
13472;DHT22;6808;49.444;11.034;2023-03-19T00:04:57;9.80;99.90
13472;DHT22;6808;49.444;11.034;2023-03-19T00:07:23;9.70;99.90
13472;DHT22;6808;49.444;11.034;2023-03-19T00:09:49;10.50;99.90
13472;DHT22;6808;49.444;11.034;2023-03-19T00:12:14;9.60;99.90
13472;DHT22;6808;49.444;11.034;2023-03-19T00:14:40;9.60;99.90
13472;DHT22;6808;49.444;11.034;2023-03-19T00:17:06;9.60;99.90
13472;DHT22;6808;49.444;11.034;2023-03-19T00:19:32;9.60;99.90
13472;DHT22;6808;49.444;11.034;2023-03-19T00:21:57;9.60;99.90
13472;DHT22;6808;49.444;11.034;2023-03-19T00:24:23;9.50;99.90
13472;DHT22;6808;49.444;11.034;2023-03-19T00:26:49;9.50;99.90
13472;DHT22;6808;49.444;11.034;2023-03-19T00:29:16;9.60;99.90
13472;DHT22;6808;49.444;11.034;2023-03-19T00:31:42;9.50;99.90
13472;DHT22;6808;49.444;11.034;2023-03-19T00:34:08;9.50;99.90
13472;DHT22;6808;49.444;11.034;2023-03-19T00:36:34;9.40;99.90
13472;DHT22;6808;49.444;11.034;2023-03-19T00:39:00;9.60;99.90
13472;DHT22;6808;49.444;11.034;2023-03-19T00:41:26;9.70;99.90
13472;DHT22;6808;49.444;11.034;2023-03-19T00:43:53;9.40;99.90
13472;DHT22;6808;49.444;11.034;2023-03-19T00:46:19;9.40;99.90
13472;DHT22;6808;49.444;11.034;2023-03-19T00:48:45;9.30;99.90
13472;DHT22;6808;49.444;11.034;2023-03-19T00:51:11;9.30;99.90
13472;DHT22;6808;49.444;11.034;2023-03-19T00:53:41;9.30;99.90
13472;DHT22;6808;49.444;11.034;2023-03-19T00:56:07;9.30;99.90
13472;DHT22;6808;49.444;11.034;2023-03-19T00:58:34;9.20;99.90
13472;DHT22;6808;49.444;11.034;2023-03-19T01:01:00;9.20;99.90
13472;DHT22;6808;49.444;11.034;2023-03-19T01:03:26;9.20;99.90
13472;DHT22;6808;49.444;11.034;2023-03-19T01:05:52;9.30;99.90
13472;DHT22;6808;49.444;11.034;2023-03-19T01:08:17;9.30;99.90
13472;DHT22;6808;49.444;11.034;2023-03-19T01:10:44;9.30;99.90
13472;DHT22;6808;49.444;11.034;2023-03-19T01:13:10;9.30;99.90
13472;DHT22;6808;49.444;11.034;2023-03-19T01:15:41;9.30;99.90
13472;DHT22;6808;49.444;11.034;2023-03-19T01:18:08;9.30;99.90
13472;DHT22;6808;49.444;11.034;2023-03-19T01:20:35;9.30;99.90
13472;DHT22;6808;49.444;11.034;2023-03-19T01:23:02;9.30;99.90
13472;DHT22;6808;49.444;11.034;2023-03-19T01:25:28;9.20;99.90
13472;DHT22;6808;49.444;11.034;2023-03-19T01:27:54;9.20;99.90
13472;DHT22;6808;49.444;11.034;2023-03-19T01:30:19;9.10;99.90
13472;DHT22;6808;49.444;11.034;2023-03-19T01:32:46;9.10;99.90
13472;DHT22;6808;49.444;11.034;2023-03-19T01:35:11;9.10;99.90
13472;DHT22;6808;49.444;11.034;2023-03-19T01:37:37;9.10;99.90
13472;DHT22;6808;49.444;11.034;2023-03-19T01:40:04;9.10;99.90
13472;DHT22;6808;49.444;11.034;2023-03-19T01:42:30;9.00;99.90
13472;DHT22;6808;49.444;11.034;2023-03-19T01:44:56;8.80;99.90
13472;DHT22;6808;49.444;11.034;2023-03-19T01:47:30;8.80;99.90
13472;DHT22;6808;49.444;11.034;2023-03-19T01:49:57;8.80;99.90
13472;DHT22;6808;49.444;11.034;2023-03-19T01:52:27;8.80;99.90
13472;DHT22;6808;49.444;11.034;2023-03-19T01:54:54;8.90;99.90
13472;DHT22;6808;49.444;11.034;2023-03-19T01:57:21;8.90;99.90
13472;DHT22;6808;49.444;11.034;2023-03-19T01:59:51;8.80;99.90
13472;DHT22;6808;49.444;11.034;2023-03-19T02:02:37;8.80;99.90
13472;DHT22;6808;49.444;11.034;2023-03-19T02:05:12;9.10;99.90
13472;DHT22;6808;49.444;11.034;2023-03-19T02:07:41;8.70;99.90
13472;DHT22;6808;49.444;11.034;2023-03-19T02:10:11;8.70;99.90
13472;DHT22;6808;49.444;11.034;2023-03-19T02:12:37;8.70;99.90
13472;DHT22;6808;49.444;11.034;2023-03-19T02:15:04;8.70;99.90
13472;DHT22;6808;49.444;11.034;2023-03-19T02:17:30;8.80;99.90
13472;DHT22;6808;49.444;11.034;2023-03-19T02:20:14;8.80;99.90
13472;DHT22;6808;49.444;11.034;2023-03-19T02:23:02;8.90;99.90
13472;DHT22;6808;49.444;11.034;2023-03-19T02:28:15;9.00;99.90
13472;DHT22;6808;49.444;11.034;2023-03-19T02:30:42;9.00;99.90
13472;DHT22;6808;49.444;11.034;2023-03-19T02:33:14;9.00;99.90
13472;DHT22;6808;49.444;11.034;2023-03-19T02:35:41;8.90;99.90
13472;DHT22;6808;49.444;11.034;2023-03-19T02:38:06;8.90;99.90
13472;DHT22;6808;49.444;11.034;2023-03-19T02:40:38;9.00;99.90
13472;DHT22;6808;49.444;11.034;2023-03-19T02:43:06;9.00;99.90
13472;DHT22;6808;49.444;11.034;2023-03-19T02:45:31;9.60;99.90
13472;DHT22;6808;49.444;11.034;2023-03-19T02:47:58;8.80;99.90
13472;DHT22;6808;49.444;11.034;2023-03-19T02:50:24;8.80;99.90
13472;DHT22;6808;49.444;11.034;2023-03-19T02:52:50;8.70;99.90
13472;DHT22;6808;49.444;11.034;2023-03-19T02:55:15;8.70;99.90
13472;DHT22;6808;49.444;11.034;2023-03-19T02:57:43;8.70;99.90
13472;DHT22;6808;49.444;11.034;2023-03-19T03:00:09;8.60;99.90
13472;DHT22;6808;49.444;11.034;2023-03-19T03:02:35;8.60;99.90
13472;DHT22;6808;49.444;11.034;2023-03-19T03:05:01;8.60;99.90
13472;DHT22;6808;49.444;11.034;2023-03-19T03:07:26;8.60;99.90
13472;DHT22;6808;49.444;11.034;2023-03-19T03:09:52;8.50;99.90
13472;DHT22;6808;49.444;11.034;2023-03-19T03:12:17;8.50;99.90
13472;DHT22;6808;49.444;11.034;2023-03-19T03:14:43;8.50;99.90
13472;DHT22;6808;49.444;11.034;2023-03-19T03:17:10;8.40;99.90
13472;DHT22;6808;49.444;11.034;2023-03-19T03:19:35;8.40;99.90
13472;DHT22;6808;49.444;11.034;2023-03-19T03:22:01;8.40;99.90
13472;DHT22;6808;49.444;11.034;2023-03-19T03:24:26;8.40;99.90
13472;DHT22;6808;49.444;11.034;2023-03-19T03:26:52;8.40;99.90
13472;DHT22;6808;49.444;11.034;2023-03-19T03:29:18;8.40;99.90
13472;DHT22;6808;49.444;11.034;2023-03-19T03:31:43;8.40;99.90
13472;DHT22;6808;49.444;11.034;2023-03-19T03:34:09;8.40;99.90
13472;DHT22;6808;49.444;11.034;2023-03-19T03:36:35;8.40;99.90
13472;DHT22;6808;49.444;11.034;2023-03-19T03:39:01;9.70;99.90
13472;DHT22;6808;49.444;11.034;2023-03-19T03:41:26;8.50;99.90
13472;DHT22;6808;49.444;11.034;2023-03-19T03:43:52;8.50;99.90
13472;DHT22;6808;49.444;11.034;2023-03-19T03:46:17;8.50;99.90
13472;DHT22;6808;49.444;11.034;2023-03-19T03:48:43;8.60;99.90
13472;DHT22;6808;49.444;11.034;2023-03-19T03:51:09;8.60;99.90
13472;DHT22;6808;49.444;11.034;2023-03-19T03:53:34;8.60;99.90
13472;DHT22;6808;49.444;11.034;2023-03-19T03:56:00;8.60;99.90
13472;DHT22;6808;49.444;11.034;2023-03-19T03:58:26;8.60;99.90
13472;DHT22;6808;49.444;11.034;2023-03-19T04:00:52;8.60;99.90
13472;DHT22;6808;49.444;11.034;2023-03-19T04:03:19;8.60;99.90
13472;DHT22;6808;49.444;11.034;2023-03-19T04:05:44;8.60;99.90
13472;DHT22;6808;49.444;11.034;2023-03-19T04:08:10;8.60;99.90
13472;DHT22;6808;49.444;11.034;2023-03-19T04:10:39;8.60;99.90
13472;DHT22;6808;49.444;11.034;2023-03-19T04:13:07;8.90;99.90
13472;DHT22;6808;49.444;11.034;2023-03-19T04:15:33;8.60;99.90
13472;DHT22;6808;49.444;11.034;2023-03-19T04:17:59;8.60;99.90
13472;DHT22;6808;49.444;11.034;2023-03-19T04:20:24;8.60;99.90
13472;DHT22;6808;49.444;11.034;2023-03-19T04:22:50;8.60;99.90
13472;DHT22;6808;49.444;11.034;2023-03-19T04:25:16;8.70;99.90
13472;DHT22;6808;49.444;11.034;2023-03-19T04:27:43;8.60;99.90
13472;DHT22;6808;49.444;11.034;2023-03-19T04:30:09;8.70;99.90
13472;DHT22;6808;49.444;11.034;2023-03-19T04:32:35;8.60;99.90
13472;DHT22;6808;49.444;11.034;2023-03-19T04:35:01;8.70;99.90
13472;DHT22;6808;49.444;11.034;2023-03-19T04:37:27;9.10;99.90
13472;DHT22;6808;49.444;11.034;2023-03-19T04:39:53;8.70;99.90
13472;DHT22;6808;49.444;11.034;2023-03-19T04:42:19;8.70;99.90
13472;DHT22;6808;49.444;11.034;2023-03-19T04:44:44;8.70;99.90
13472;DHT22;6808;49.444;11.034;2023-03-19T04:47:10;8.80;99.90
13472;DHT22;6808;49.444;11.034;2023-03-19T04:49:36;8.80;99.90
13472;DHT22;6808;49.444;11.034;2023-03-19T04:52:01;8.70;99.90
13472;DHT22;6808;49.444;11.034;2023-03-19T04:54:27;8.70;99.90
13472;DHT22;6808;49.444;11.034;2023-03-19T04:56:53;8.70;99.90
13472;DHT22;6808;49.444;11.034;2023-03-19T04:59:18;8.70;99.90
13472;DHT22;6808;49.444;11.034;2023-03-19T05:01:44;8.60;99.90
13472;DHT22;6808;49.444;11.034;2023-03-19T05:04:10;8.70;99.90
13472;DHT22;6808;49.444;11.034;2023-03-19T05:06:36;8.60;99.90
13472;DHT22;6808;49.444;11.034;2023-03-19T05:09:03;8.60;99.90
13472;DHT22;6808;49.444;11.034;2023-03-19T05:11:29;8.60;99.90
13472;DHT22;6808;49.444;11.034;2023-03-19T05:13:54;8.60;99.90
13472;DHT22;6808;49.444;11.034;2023-03-19T05:16:20;8.60;99.90
13472;DHT22;6808;49.444;11.034;2023-03-19T05:18:45;8.50;99.90
13472;DHT22;6808;49.444;11.034;2023-03-19T05:21:11;8.50;99.90
13472;DHT22;6808;49.444;11.034;2023-03-19T05:23:38;8.60;99.90
13472;DHT22;6808;49.444;11.034;2023-03-19T05:26:04;8.50;99.90
13472;DHT22;6808;49.444;11.034;2023-03-19T05:28:31;8.60;99.90
13472;DHT22;6808;49.444;11.034;2023-03-19T05:30:57;8.60;99.90
13472;DHT22;6808;49.444;11.034;2023-03-19T05:33:23;8.60;99.90
13472;DHT22;6808;49.444;11.034;2023-03-19T05:35:48;8.60;99.90
13472;DHT22;6808;49.444;11.034;2023-03-19T05:38:14;8.60;99.90
13472;DHT22;6808;49.444;11.034;2023-03-19T05:40:40;8.60;99.90
13472;DHT22;6808;49.444;11.034;2023-03-19T05:43:09;8.60;99.90
13472;DHT22;6808;49.444;11.034;2023-03-19T05:45:35;8.60;99.90
13472;DHT22;6808;49.444;11.034;2023-03-19T05:48:02;8.60;99.90
13472;DHT22;6808;49.444;11.034;2023-03-19T05:50:28;8.70;99.90
13472;DHT22;6808;49.444;11.034;2023-03-19T05:52:53;8.70;99.90
13472;DHT22;6808;49.444;11.034;2023-03-19T05:55:19;8.70;99.90
13472;DHT22;6808;49.444;11.034;2023-03-19T05:57:45;8.70;99.90
13472;DHT22;6808;49.444;11.034;2023-03-19T06:00:11;8.70;99.90
13472;DHT22;6808;49.444;11.034;2023-03-19T06:02:37;8.60;99.90
13472;DHT22;6808;49.444;11.034;2023-03-19T06:05:04;8.60;99.90
13472;DHT22;6808;49.444;11.034;2023-03-19T06:07:30;8.60;99.90
13472;DHT22;6808;49.444;11.034;2023-03-19T06:09:56;8.60;99.90
13472;DHT22;6808;49.444;11.034;2023-03-19T06:12:22;8.60;99.90
13472;DHT22;6808;49.444;11.034;2023-03-19T06:14:48;8.70;99.90
13472;DHT22;6808;49.444;11.034;2023-03-19T06:17:14;8.80;99.90
13472;DHT22;6808;49.444;11.034;2023-03-19T06:19:40;8.80;99.90
13472;DHT22;6808;49.444;11.034;2023-03-19T06:22:06;8.80;99.90
13472;DHT22;6808;49.444;11.034;2023-03-19T06:24:32;8.80;99.90
13472;DHT22;6808;49.444;11.034;2023-03-19T06:26:58;8.80;99.90
13472;DHT22;6808;49.444;11.034;2023-03-19T06:29:24;8.80;99.90
13472;DHT22;6808;49.444;11.034;2023-03-19T06:31:49;8.90;99.90
13472;DHT22;6808;49.444;11.034;2023-03-19T06:34:16;8.90;99.90
13472;DHT22;6808;49.444;11.034;2023-03-19T06:36:42;9.60;99.90
13472;DHT22;6808;49.444;11.034;2023-03-19T06:39:08;9.00;99.90
13472;DHT22;6808;49.444;11.034;2023-03-19T06:41:33;8.90;99.90
13472;DHT22;6808;49.444;11.034;2023-03-19T06:43:59;8.90;99.90
13472;DHT22;6808;49.444;11.034;2023-03-19T06:46:25;9.00;99.90
13472;DHT22;6808;49.444;11.034;2023-03-19T06:48:50;9.00;99.90
13472;DHT22;6808;49.444;11.034;2023-03-19T06:51:16;9.00;99.90
13472;DHT22;6808;49.444;11.034;2023-03-19T06:53:42;9.10;99.90
13472;DHT22;6808;49.444;11.034;2023-03-19T06:56:07;9.10;99.90
13472;DHT22;6808;49.444;11.034;2023-03-19T06:58:33;9.10;99.90
13472;DHT22;6808;49.444;11.034;2023-03-19T07:01:00;9.20;99.90
13472;DHT22;6808;49.444;11.034;2023-03-19T07:03:26;9.20;99.90
13472;DHT22;6808;49.444;11.034;2023-03-19T07:05:52;9.30;99.90
13472;DHT22;6808;49.444;11.034;2023-03-19T07:08:18;9.30;99.90
13472;DHT22;6808;49.444;11.034;2023-03-19T07:10:43;9.30;99.90
13472;DHT22;6808;49.444;11.034;2023-03-19T07:13:09;9.40;99.90
13472;DHT22;6808;49.444;11.034;2023-03-19T07:15:34;9.40;99.90
13472;DHT22;6808;49.444;11.034;2023-03-19T07:18:01;9.50;99.90
13472;DHT22;6808;49.444;11.034;2023-03-19T07:20:26;9.50;99.90
13472;DHT22;6808;49.444;11.034;2023-03-19T07:22:52;9.50;99.90
13472;DHT22;6808;49.444;11.034;2023-03-19T07:25:18;9.60;99.90
13472;DHT22;6808;49.444;11.034;2023-03-19T07:27:44;9.60;99.90
13472;DHT22;6808;49.444;11.034;2023-03-19T07:30:10;9.70;99.90
13472;DHT22;6808;49.444;11.034;2023-03-19T07:32:36;9.60;99.90
13472;DHT22;6808;49.444;11.034;2023-03-19T07:35:04;9.70;99.90
13472;DHT22;6808;49.444;11.034;2023-03-19T07:37:30;9.70;99.90
13472;DHT22;6808;49.444;11.034;2023-03-19T07:39:56;9.70;99.90
13472;DHT22;6808;49.444;11.034;2023-03-19T07:42:21;9.80;99.90
13472;DHT22;6808;49.444;11.034;2023-03-19T07:44:47;10.10;99.90
13472;DHT22;6808;49.444;11.034;2023-03-19T07:47:12;9.90;99.90
13472;DHT22;6808;49.444;11.034;2023-03-19T07:49:38;9.90;99.90
13472;DHT22;6808;49.444;11.034;2023-03-19T07:52:03;11.30;99.90
13472;DHT22;6808;49.444;11.034;2023-03-19T07:54:29;9.90;99.90
13472;DHT22;6808;49.444;11.034;2023-03-19T07:56:55;9.90;99.90
13472;DHT22;6808;49.444;11.034;2023-03-19T07:59:21;9.90;99.90
13472;DHT22;6808;49.444;11.034;2023-03-19T08:01:47;9.80;99.90
13472;DHT22;6808;49.444;11.034;2023-03-19T08:04:12;9.80;99.90
13472;DHT22;6808;49.444;11.034;2023-03-19T08:06:38;10.30;99.90
13472;DHT22;6808;49.444;11.034;2023-03-19T08:09:04;9.40;99.90
13472;DHT22;6808;49.444;11.034;2023-03-19T08:11:30;9.90;99.90
13472;DHT22;6808;49.444;11.034;2023-03-19T08:13:56;10.00;99.90
13472;DHT22;6808;49.444;11.034;2023-03-19T08:16:22;10.00;99.90
13472;DHT22;6808;49.444;11.034;2023-03-19T08:18:47;10.00;99.90
13472;DHT22;6808;49.444;11.034;2023-03-19T08:21:14;10.00;99.90
13472;DHT22;6808;49.444;11.034;2023-03-19T08:23:39;10.10;99.90
13472;DHT22;6808;49.444;11.034;2023-03-19T08:26:05;10.10;99.90
13472;DHT22;6808;49.444;11.034;2023-03-19T08:28:31;10.10;99.90
13472;DHT22;6808;49.444;11.034;2023-03-19T08:30:56;10.10;99.90
13472;DHT22;6808;49.444;11.034;2023-03-19T08:33:22;10.10;99.90
13472;DHT22;6808;49.444;11.034;2023-03-19T08:35:47;10.20;99.90
13472;DHT22;6808;49.444;11.034;2023-03-19T08:38:13;10.20;99.90
13472;DHT22;6808;49.444;11.034;2023-03-19T08:40:39;10.10;99.90
13472;DHT22;6808;49.444;11.034;2023-03-19T08:43:04;10.20;99.90
13472;DHT22;6808;49.444;11.034;2023-03-19T08:45:31;10.30;99.90
13472;DHT22;6808;49.444;11.034;2023-03-19T08:47:56;10.30;99.90
13472;DHT22;6808;49.444;11.034;2023-03-19T08:50:22;10.30;99.90
13472;DHT22;6808;49.444;11.034;2023-03-19T08:52:48;10.30;99.90
13472;DHT22;6808;49.444;11.034;2023-03-19T08:55:14;10.50;99.90
13472;DHT22;6808;49.444;11.034;2023-03-19T08:57:40;10.30;99.90
13472;DHT22;6808;49.444;11.034;2023-03-19T09:00:08;9.30;99.90
13472;DHT22;6808;49.444;11.034;2023-03-19T09:02:34;10.30;99.90
13472;DHT22;6808;49.444;11.034;2023-03-19T09:04:59;10.30;99.90
13472;DHT22;6808;49.444;11.034;2023-03-19T09:07:25;10.30;99.90
13472;DHT22;6808;49.444;11.034;2023-03-19T09:09:50;10.30;99.90
13472;DHT22;6808;49.444;11.034;2023-03-19T09:12:18;10.40;99.90
13472;DHT22;6808;49.444;11.034;2023-03-19T09:14:43;10.40;99.90
13472;DHT22;6808;49.444;11.034;2023-03-19T09:17:10;10.40;99.90
13472;DHT22;6808;49.444;11.034;2023-03-19T09:19:36;10.40;99.90
13472;DHT22;6808;49.444;11.034;2023-03-19T09:22:02;10.50;99.90
13472;DHT22;6808;49.444;11.034;2023-03-19T09:24:28;10.50;99.90
13472;DHT22;6808;49.444;11.034;2023-03-19T09:26:54;10.50;99.90
13472;DHT22;6808;49.444;11.034;2023-03-19T09:29:19;10.60;99.90
13472;DHT22;6808;49.444;11.034;2023-03-19T09:31:45;10.60;99.90
13472;DHT22;6808;49.444;11.034;2023-03-19T09:34:11;10.60;99.90
13472;DHT22;6808;49.444;11.034;2023-03-19T09:36:38;10.60;99.90
13472;DHT22;6808;49.444;11.034;2023-03-19T09:39:05;10.60;99.90
13472;DHT22;6808;49.444;11.034;2023-03-19T09:44:20;10.60;99.90
13472;DHT22;6808;49.444;11.034;2023-03-19T09:46:56;10.70;99.90
13472;DHT22;6808;49.444;11.034;2023-03-19T09:49:45;10.70;99.90
13472;DHT22;6808;49.444;11.034;2023-03-19T09:52:37;10.70;99.90
13472;DHT22;6808;49.444;11.034;2023-03-19T09:55:33;10.70;99.90
13472;DHT22;6808;49.444;11.034;2023-03-19T09:58:01;10.70;99.90
13472;DHT22;6808;49.444;11.034;2023-03-19T10:00:31;10.90;99.90
13472;DHT22;6808;49.444;11.034;2023-03-19T10:11:23;10.90;99.90
13472;DHT22;6808;49.444;11.034;2023-03-19T10:16:31;10.90;99.90
13472;DHT22;6808;49.444;11.034;2023-03-19T10:19:01;10.90;99.90
13472;DHT22;6808;49.444;11.034;2023-03-19T10:21:41;11.00;99.90
13472;DHT22;6808;49.444;11.034;2023-03-19T10:24:17;10.90;99.90
13472;DHT22;6808;49.444;11.034;2023-03-19T10:26:46;10.90;99.90
13472;DHT22;6808;49.444;11.034;2023-03-19T10:29:17;10.90;99.90
13472;DHT22;6808;49.444;11.034;2023-03-19T10:34:45;10.80;99.90
13472;DHT22;6808;49.444;11.034;2023-03-19T10:37:19;10.80;99.90
13472;DHT22;6808;49.444;11.034;2023-03-19T10:39:47;10.80;99.90
13472;DHT22;6808;49.444;11.034;2023-03-19T10:42:38;10.80;99.90
13472;DHT22;6808;49.444;11.034;2023-03-19T10:45:26;10.80;99.90
13472;DHT22;6808;49.444;11.034;2023-03-19T10:47:53;10.80;99.90
13472;DHT22;6808;49.444;11.034;2023-03-19T10:55:43;11.40;99.90
13472;DHT22;6808;49.444;11.034;2023-03-19T10:58:18;10.80;99.90
13472;DHT22;6808;49.444;11.034;2023-03-19T11:00:48;10.90;99.90
13472;DHT22;6808;49.444;11.034;2023-03-19T11:03:36;11.10;99.90
13472;DHT22;6808;49.444;11.034;2023-03-19T11:06:21;10.90;99.90
13472;DHT22;6808;49.444;11.034;2023-03-19T11:08:55;11.00;99.90
13472;DHT22;6808;49.444;11.034;2023-03-19T11:11:33;11.10;99.90
13472;DHT22;6808;49.444;11.034;2023-03-19T11:19:26;11.00;99.90
13472;DHT22;6808;49.444;11.034;2023-03-19T11:22:06;11.00;99.90
13472;DHT22;6808;49.444;11.034;2023-03-19T11:24:40;11.10;99.90
13472;DHT22;6808;49.444;11.034;2023-03-19T11:27:07;11.20;99.90
13472;DHT22;6808;49.444;11.034;2023-03-19T11:29:40;11.30;99.90
13472;DHT22;6808;49.444;11.034;2023-03-19T11:32:32;11.40;99.90
13472;DHT22;6808;49.444;11.034;2023-03-19T11:38:00;11.40;99.90
13472;DHT22;6808;49.444;11.034;2023-03-19T11:40:54;11.40;99.90
13472;DHT22;6808;49.444;11.034;2023-03-19T11:54:36;12.00;99.90
13472;DHT22;6808;49.444;11.034;2023-03-19T12:00:32;12.10;99.90
13472;DHT22;6808;49.444;11.034;2023-03-19T12:03:19;12.20;99.90
13472;DHT22;6808;49.444;11.034;2023-03-19T12:06:40;12.30;99.90
13472;DHT22;6808;49.444;11.034;2023-03-19T12:11:53;12.50;99.90
13472;DHT22;6808;49.444;11.034;2023-03-19T12:14:24;12.60;99.90
13472;DHT22;6808;49.444;11.034;2023-03-19T12:22:21;13.00;99.90
13472;DHT22;6808;49.444;11.034;2023-03-19T12:25:06;13.00;99.90
13472;DHT22;6808;49.444;11.034;2023-03-19T12:33:35;13.50;99.90
13472;DHT22;6808;49.444;11.034;2023-03-19T12:36:08;13.70;99.90
13472;DHT22;6808;49.444;11.034;2023-03-19T12:38:39;13.90;99.90
13472;DHT22;6808;49.444;11.034;2023-03-19T12:41:11;14.00;99.90
13472;DHT22;6808;49.444;11.034;2023-03-19T12:43:55;14.10;99.90
13472;DHT22;6808;49.444;11.034;2023-03-19T12:46:37;14.10;99.90
13472;DHT22;6808;49.444;11.034;2023-03-19T12:51:37;14.20;99.90
13472;DHT22;6808;49.444;11.034;2023-03-19T12:54:10;14.30;99.90
13472;DHT22;6808;49.444;11.034;2023-03-19T12:56:59;14.50;99.90
13472;DHT22;6808;49.444;11.034;2023-03-19T12:59:34;14.60;99.90
13472;DHT22;6808;49.444;11.034;2023-03-19T13:02:17;14.80;99.90
13472;DHT22;6808;49.444;11.034;2023-03-19T13:04:55;15.00;99.90
13472;DHT22;6808;49.444;11.034;2023-03-19T13:07:39;15.20;99.90
13472;DHT22;6808;49.444;11.034;2023-03-19T13:10:18;15.30;99.90
13472;DHT22;6808;49.444;11.034;2023-03-19T13:12:45;15.50;99.90
13472;DHT22;6808;49.444;11.034;2023-03-19T13:15:22;15.60;99.90
13472;DHT22;6808;49.444;11.034;2023-03-19T13:21:15;15.70;98.90
13472;DHT22;6808;49.444;11.034;2023-03-19T13:23:47;15.70;99.90
13472;DHT22;6808;49.444;11.034;2023-03-19T13:26:13;15.90;99.00
13472;DHT22;6808;49.444;11.034;2023-03-19T13:29:24;16.00;99.90
13472;DHT22;6808;49.444;11.034;2023-03-19T13:31:52;16.20;99.20
13472;DHT22;6808;49.444;11.034;2023-03-19T13:34:25;16.30;99.70
13472;DHT22;6808;49.444;11.034;2023-03-19T13:37:12;16.40;98.90
13472;DHT22;6808;49.444;11.034;2023-03-19T13:39:39;16.30;98.60
13472;DHT22;6808;49.444;11.034;2023-03-19T13:42:36;16.30;97.50
13472;DHT22;6808;49.444;11.034;2023-03-19T13:45:27;16.20;97.80
13472;DHT22;6808;49.444;11.034;2023-03-19T13:47:53;16.30;96.60
13472;DHT22;6808;49.444;11.034;2023-03-19T13:50:25;16.30;96.70
13472;DHT22;6808;49.444;11.034;2023-03-19T13:53:09;16.20;95.40
13472;DHT22;6808;49.444;11.034;2023-03-19T13:55:57;16.20;94.80
13472;DHT22;6808;49.444;11.034;2023-03-19T13:58:25;15.70;94.80
13472;DHT22;6808;49.444;11.034;2023-03-19T14:01:33;15.50;96.10
13472;DHT22;6808;49.444;11.034;2023-03-19T14:04:00;15.50;96.80
13472;DHT22;6808;49.444;11.034;2023-03-19T14:09:05;15.20;96.70
13472;DHT22;6808;49.444;11.034;2023-03-19T14:11:34;15.30;97.50
13472;DHT22;6808;49.444;11.034;2023-03-19T14:14:04;15.70;97.30
13472;DHT22;6808;49.444;11.034;2023-03-19T14:16:34;15.20;96.90
13472;DHT22;6808;49.444;11.034;2023-03-19T14:19:02;15.20;97.70
13472;DHT22;6808;49.444;11.034;2023-03-19T14:21:33;16.20;99.20
13472;DHT22;6808;49.444;11.034;2023-03-19T14:26:49;15.70;96.80
13472;DHT22;6808;49.444;11.034;2023-03-19T14:29:15;16.20;97.10
13472;DHT22;6808;49.444;11.034;2023-03-19T14:31:50;15.70;96.20
13472;DHT22;6808;49.444;11.034;2023-03-19T14:34:31;15.70;95.30
13472;DHT22;6808;49.444;11.034;2023-03-19T14:37:22;15.70;95.20
13472;DHT22;6808;49.444;11.034;2023-03-19T14:40:09;15.60;95.50
13472;DHT22;6808;49.444;11.034;2023-03-19T14:48:22;15.40;96.30
13472;DHT22;6808;49.444;11.034;2023-03-19T14:53:16;15.50;96.70
13472;DHT22;6808;49.444;11.034;2023-03-19T14:55:50;15.50;96.00
13472;DHT22;6808;49.444;11.034;2023-03-19T14:58:18;15.40;96.30
13472;DHT22;6808;49.444;11.034;2023-03-19T15:00:48;15.40;96.50
13472;DHT22;6808;49.444;11.034;2023-03-19T15:03:33;15.50;96.00
13472;DHT22;6808;49.444;11.034;2023-03-19T15:06:03;15.40;96.60
13472;DHT22;6808;49.444;11.034;2023-03-19T15:08:31;15.50;97.10
13472;DHT22;6808;49.444;11.034;2023-03-19T15:13:50;15.50;97.00
13472;DHT22;6808;49.444;11.034;2023-03-19T15:16:25;15.50;97.10
13472;DHT22;6808;49.444;11.034;2023-03-19T15:18:53;15.50;96.60
13472;DHT22;6808;49.444;11.034;2023-03-19T15:21:20;15.40;95.60
13472;DHT22;6808;49.444;11.034;2023-03-19T15:23:46;15.30;95.40
13472;DHT22;6808;49.444;11.034;2023-03-19T15:26:12;15.30;95.30
13472;DHT22;6808;49.444;11.034;2023-03-19T15:28:49;15.20;94.70
13472;DHT22;6808;49.444;11.034;2023-03-19T15:31:16;15.20;95.90
13472;DHT22;6808;49.444;11.034;2023-03-19T15:33:42;15.30;95.80
13472;DHT22;6808;49.444;11.034;2023-03-19T15:38:38;15.20;94.10
13472;DHT22;6808;49.444;11.034;2023-03-19T15:41:06;15.10;93.80
13472;DHT22;6808;49.444;11.034;2023-03-19T15:43:34;15.10;94.00
13472;DHT22;6808;49.444;11.034;2023-03-19T15:46:01;15.10;93.90
13472;DHT22;6808;49.444;11.034;2023-03-19T15:51:01;15.00;93.60
13472;DHT22;6808;49.444;11.034;2023-03-19T15:53:31;14.90;94.30
13472;DHT22;6808;49.444;11.034;2023-03-19T15:55:59;14.90;94.80
13472;DHT22;6808;49.444;11.034;2023-03-19T15:58:28;14.80;94.70
13472;DHT22;6808;49.444;11.034;2023-03-19T16:00:55;14.90;95.50
13472;DHT22;6808;49.444;11.034;2023-03-19T16:03:35;14.90;95.60
13472;DHT22;6808;49.444;11.034;2023-03-19T16:06:04;14.90;95.60
13472;DHT22;6808;49.444;11.034;2023-03-19T16:08:31;14.80;95.30
13472;DHT22;6808;49.444;11.034;2023-03-19T16:11:27;14.70;94.90
13472;DHT22;6808;49.444;11.034;2023-03-19T16:14:01;14.70;95.20
13472;DHT22;6808;49.444;11.034;2023-03-19T16:16:33;14.70;95.60
13472;DHT22;6808;49.444;11.034;2023-03-19T16:18:59;14.70;95.00
13472;DHT22;6808;49.444;11.034;2023-03-19T16:21:38;14.80;95.50
13472;DHT22;6808;49.444;11.034;2023-03-19T16:26:36;14.70;95.30
13472;DHT22;6808;49.444;11.034;2023-03-19T16:31:41;14.60;94.80
13472;DHT22;6808;49.444;11.034;2023-03-19T16:39:56;14.40;96.30
13472;DHT22;6808;49.444;11.034;2023-03-19T16:44:56;14.40;96.40
13472;DHT22;6808;49.444;11.034;2023-03-19T16:47:22;14.40;96.10
13472;DHT22;6808;49.444;11.034;2023-03-19T16:49:48;14.40;96.00
13472;DHT22;6808;49.444;11.034;2023-03-19T16:52:18;14.40;96.40
13472;DHT22;6808;49.444;11.034;2023-03-19T16:54:45;14.30;97.20
13472;DHT22;6808;49.444;11.034;2023-03-19T16:57:12;14.20;97.10
13472;DHT22;6808;49.444;11.034;2023-03-19T16:59:39;14.30;97.40
13472;DHT22;6808;49.444;11.034;2023-03-19T17:02:13;14.20;97.70
13472;DHT22;6808;49.444;11.034;2023-03-19T17:04:39;14.20;97.60
13472;DHT22;6808;49.444;11.034;2023-03-19T17:07:05;14.20;97.10
13472;DHT22;6808;49.444;11.034;2023-03-19T17:09:31;14.10;97.00
13472;DHT22;6808;49.444;11.034;2023-03-19T17:11:57;14.10;97.20
13472;DHT22;6808;49.444;11.034;2023-03-19T17:14:22;14.10;97.30
13472;DHT22;6808;49.444;11.034;2023-03-19T17:16:48;14.10;98.70
13472;DHT22;6808;49.444;11.034;2023-03-19T17:19:20;14.00;98.40
13472;DHT22;6808;49.444;11.034;2023-03-19T17:21:49;14.00;98.40
13472;DHT22;6808;49.444;11.034;2023-03-19T17:26:51;13.90;98.70
13472;DHT22;6808;49.444;11.034;2023-03-19T17:29:17;13.80;98.30
13472;DHT22;6808;49.444;11.034;2023-03-19T17:31:46;13.80;98.40
13472;DHT22;6808;49.444;11.034;2023-03-19T17:34:17;13.70;98.80